createdAt,value
2023-05-18T00:02:21.621Z,102121.88
2023-05-18T00:04:51.228Z,102128.56
2023-05-18T00:07:21.130Z,102119.75
2023-05-18T00:09:50.659Z,102122.63
2023-05-18T00:12:20.260Z,102116.19
2023-05-18T00:14:49.844Z,102117.19
2023-05-18T00:17:23.780Z,102121.59
2023-05-18T00:19:53.360Z,102120.59
2023-05-18T00:22:22.847Z,102122.88
2023-05-18T00:24:52.461Z,102126.16
2023-05-18T00:27:22.117Z,102123.56
2023-05-18T00:29:51.580Z,102123.28
2023-05-18T00:32:23.677Z,102140.03
2023-05-18T00:34:54.504Z,102128.97
2023-05-18T00:37:25.619Z,102129.28
2023-05-18T00:39:55.195Z,102129.44
2023-05-18T00:42:24.775Z,102129.72
2023-05-18T00:44:54.302Z,102124.97
2023-05-18T00:47:27.707Z,102127.69
2023-05-18T00:49:57.416Z,102132.41
2023-05-18T00:52:27.418Z,102123.72
2023-05-18T00:54:58.486Z,102122.72
2023-05-18T00:57:28.757Z,102132.22
2023-05-18T00:59:59.262Z,102124.84
2023-05-18T01:02:31.900Z,102140.19
2023-05-18T01:05:03.616Z,102145.00
2023-05-18T01:07:34.529Z,102130.81
2023-05-18T01:10:04.068Z,102136.78
2023-05-18T01:12:38.711Z,102141.31
2023-05-18T01:15:13.236Z,102142.44
2023-05-18T01:18:05.453Z,102138.19
2023-05-18T01:20:46.178Z,102145.69
2023-05-18T01:23:41.696Z,102141.03
2023-05-18T01:26:29.994Z,102140.00
2023-05-18T01:29:02.862Z,102143.44
2023-05-18T01:31:32.914Z,102141.59
2023-05-18T01:34:05.601Z,102142.72
2023-05-18T01:36:35.389Z,102146.94
2023-05-18T01:39:05.553Z,102136.59
2023-05-18T01:41:42.196Z,102142.78
2023-05-18T01:44:15.936Z,102143.16
2023-05-18T01:46:55.653Z,102138.94
2023-05-18T01:49:31.922Z,102155.63
2023-05-18T01:52:06.945Z,102142.91
2023-05-18T01:54:39.106Z,102150.13
2023-05-18T01:57:12.744Z,102149.00
2023-05-18T01:59:43.270Z,102144.19
2023-05-18T02:02:14.473Z,102145.16
2023-05-18T02:04:44.081Z,102152.22
2023-05-18T02:07:14.742Z,102149.13
2023-05-18T02:09:45.502Z,102155.78
2023-05-18T02:12:17.574Z,102148.41
2023-05-18T02:14:47.207Z,102152.38
2023-05-18T02:17:16.732Z,102158.22
2023-05-18T02:19:47.473Z,102152.50
2023-05-18T02:22:18.217Z,102147.69
2023-05-18T02:24:47.932Z,102155.06
2023-05-18T02:27:20.134Z,102145.53
2023-05-18T02:29:51.904Z,102146.25
2023-05-18T02:32:21.543Z,102143.72
2023-05-18T02:34:54.664Z,102143.13
2023-05-18T02:37:24.253Z,102145.28
2023-05-18T02:39:53.728Z,102151.06
2023-05-18T02:42:25.933Z,102148.75
2023-05-18T02:44:58.071Z,102151.63
2023-05-18T02:47:27.963Z,102155.28
2023-05-18T02:49:57.538Z,102153.81
2023-05-18T02:52:27.933Z,102156.94
2023-05-18T02:54:57.936Z,102156.59
2023-05-18T02:57:47.024Z,102154.59
2023-05-18T03:00:19.747Z,102150.97
2023-05-18T03:02:50.493Z,102160.88
2023-05-18T03:05:24.060Z,102155.50
2023-05-18T03:07:54.489Z,102152.31
2023-05-18T03:10:25.125Z,102160.16
2023-05-18T03:12:57.286Z,102152.91
2023-05-18T03:15:27.293Z,102157.06
2023-05-18T03:17:56.993Z,102157.72
2023-05-18T03:20:26.782Z,102160.28
2023-05-18T03:22:57.163Z,102166.97
2023-05-18T03:25:27.341Z,102167.25
2023-05-18T03:27:59.724Z,102167.66
2023-05-18T03:30:30.873Z,102164.63
2023-05-18T03:33:00.716Z,102162.53
2023-05-18T03:35:32.913Z,102168.25
2023-05-18T03:38:02.708Z,102164.28
2023-05-18T03:40:32.629Z,102164.97
2023-05-18T03:43:04.746Z,102172.91
2023-05-18T03:45:35.272Z,102167.38
2023-05-18T03:48:05.509Z,102174.72
2023-05-18T03:50:35.073Z,102168.47
2023-05-18T03:53:05.238Z,102161.53
2023-05-18T03:55:34.754Z,102169.75
2023-05-18T03:58:06.854Z,102168.63
2023-05-18T04:00:36.567Z,102172.47
2023-05-18T04:03:06.708Z,102170.06
2023-05-18T04:05:36.363Z,102180.38
2023-05-18T04:08:07.785Z,102174.41
2023-05-18T04:10:37.332Z,102173.63
2023-05-18T04:13:09.409Z,102180.53
2023-05-18T04:15:39.482Z,102170.88
2023-05-18T04:18:10.547Z,102178.44
2023-05-18T04:20:41.765Z,102185.19
2023-05-18T04:23:11.392Z,102187.06
2023-05-18T04:25:41.754Z,102189.00
2023-05-18T04:28:14.985Z,102189.59
2023-05-18T04:30:44.579Z,102193.88
2023-05-18T04:33:16.447Z,102199.56
2023-05-18T04:35:47.463Z,102191.91
2023-05-18T04:38:17.047Z,102190.78
2023-05-18T04:40:47.348Z,102193.16
2023-05-18T04:43:21.224Z,102195.25
2023-05-18T04:45:51.520Z,102195.19
2023-05-18T04:48:21.668Z,102200.59
2023-05-18T04:50:54.420Z,102205.16
2023-05-18T04:53:24.412Z,102205.13
2023-05-18T04:55:54.894Z,102198.88
2023-05-18T04:58:29.299Z,102203.03
2023-05-18T05:01:00.136Z,102197.53
2023-05-18T05:03:33.063Z,102200.22
2023-05-18T05:06:02.814Z,102199.78
2023-05-18T05:08:33.033Z,102204.91
2023-05-18T05:11:02.537Z,102202.66
2023-05-18T05:13:35.935Z,102201.19
2023-05-18T05:16:06.206Z,102209.25
2023-05-18T05:18:35.949Z,102205.97
2023-05-18T05:21:06.662Z,102215.97
2023-05-18T05:23:37.273Z,102225.34
2023-05-18T05:26:07.826Z,102215.53
2023-05-18T05:28:40.776Z,102216.72
2023-05-18T05:31:10.545Z,102214.47
2023-05-18T05:33:40.648Z,102218.38
2023-05-18T05:36:11.654Z,102221.94
2023-05-18T05:38:41.257Z,102216.88
2023-05-18T05:41:11.066Z,102224.59
2023-05-18T05:43:43.626Z,102220.75
2023-05-18T05:46:13.227Z,102221.19
2023-05-18T05:48:43.009Z,102220.03
2023-05-18T05:51:12.621Z,102224.34
2023-05-18T05:53:43.692Z,102227.63
2023-05-18T05:56:13.467Z,102228.06
2023-05-18T05:58:46.769Z,102230.50
2023-05-18T06:01:16.529Z,102239.75
2023-05-18T06:03:46.354Z,102234.06
2023-05-18T06:06:16.323Z,102245.00
2023-05-18T06:08:45.805Z,102237.75
2023-05-18T06:11:16.078Z,102232.25
2023-05-18T06:13:48.340Z,102238.78
2023-05-18T06:16:18.054Z,102236.22
2023-05-18T06:18:49.108Z,102234.97
2023-05-18T06:21:18.893Z,102234.53
2023-05-18T06:23:48.694Z,102241.78
2023-05-18T06:26:31.653Z,102247.06
2023-05-18T06:29:23.109Z,102241.38
2023-05-18T06:32:19.323Z,102238.25
2023-05-18T06:34:56.651Z,102240.53
2023-05-18T06:37:26.284Z,102243.94
2023-05-18T06:39:55.905Z,102244.66
2023-05-18T06:42:25.552Z,102249.06
2023-05-18T06:45:07.989Z,102260.44
2023-05-18T06:47:50.843Z,102248.78
2023-05-18T06:50:20.441Z,102253.63
2023-05-18T06:52:51.628Z,102249.09
2023-05-18T06:55:21.461Z,102247.25
2023-05-18T06:57:51.767Z,102242.44
2023-05-18T07:00:24.828Z,102251.09
2023-05-18T07:02:54.684Z,102247.69
2023-05-18T07:05:24.501Z,102245.44
2023-05-18T07:07:54.141Z,102239.75
2023-05-18T07:10:24.016Z,102249.41
2023-05-18T07:12:53.567Z,102250.81
2023-05-18T07:15:26.777Z,102257.06
2023-05-18T07:17:56.605Z,102255.09
2023-05-18T07:20:26.956Z,102246.72
2023-05-18T07:22:57.020Z,102252.53
2023-05-18T07:25:27.262Z,102251.69
2023-05-18T07:27:57.695Z,102264.22
2023-05-18T07:30:29.807Z,102258.66
2023-05-18T07:32:59.430Z,102250.97
2023-05-18T07:35:29.388Z,102256.09
2023-05-18T07:37:59.224Z,102261.63
2023-05-18T07:40:28.866Z,102254.09
2023-05-18T07:42:58.558Z,102260.78
2023-05-18T07:45:31.076Z,102260.06
2023-05-18T07:48:01.230Z,102257.50
2023-05-18T07:50:31.258Z,102262.50
2023-05-18T07:53:00.805Z,102255.25
2023-05-18T07:55:30.649Z,102246.84
2023-05-18T07:58:01.244Z,102244.28
2023-05-18T08:00:33.708Z,102255.09
2023-05-18T08:03:03.604Z,102253.38
2023-05-18T08:05:33.392Z,102253.38
2023-05-18T08:08:05.186Z,102248.81
2023-05-18T08:10:36.164Z,102254.66
2023-05-18T08:13:05.744Z,102248.97
2023-05-18T08:15:38.970Z,102251.09
2023-05-18T08:18:08.630Z,102248.09
2023-05-18T08:20:38.956Z,102248.81
2023-05-18T08:23:08.492Z,102247.94
2023-05-18T08:25:38.070Z,102251.38
2023-05-18T08:28:07.715Z,102250.25
2023-05-18T08:30:39.918Z,102252.81
2023-05-18T08:33:09.506Z,102243.28
2023-05-18T08:35:40.027Z,102240.28
2023-05-18T08:38:09.594Z,102239.72
2023-05-18T08:40:46.532Z,102235.41
2023-05-18T08:43:26.186Z,102233.84
2023-05-18T08:46:07.038Z,102233.53
2023-05-18T08:48:36.932Z,102225.28
2023-05-18T08:51:09.542Z,102225.97
2023-05-18T08:53:41.172Z,102217.16
2023-05-18T08:56:13.119Z,102225.38
2023-05-18T08:58:50.670Z,102221.09
2023-05-18T09:01:28.282Z,102215.41
2023-05-18T09:04:02.146Z,102217.28
2023-05-18T09:06:33.052Z,102235.91
2023-05-18T09:09:04.656Z,102221.69
2023-05-18T09:11:36.544Z,102221.69
2023-05-18T09:14:06.155Z,102224.09
2023-05-18T09:16:38.431Z,102220.63
2023-05-18T09:19:08.176Z,102218.94
2023-05-18T09:21:37.790Z,102210.84
2023-05-18T09:24:08.258Z,102216.63
2023-05-18T09:26:38.095Z,102218.44
2023-05-18T09:29:18.796Z,102216.16
2023-05-18T09:31:52.103Z,102218.06
2023-05-18T09:34:21.795Z,102209.63
2023-05-18T09:36:53.362Z,102214.03
2023-05-18T09:39:22.916Z,102203.63
2023-05-18T09:41:58.328Z,102207.56
2023-05-18T09:44:34.336Z,102194.88
2023-05-18T09:47:11.632Z,102195.66
2023-05-18T09:49:43.192Z,102196.69
2023-05-18T09:52:12.930Z,102198.84
2023-05-18T09:54:43.266Z,102193.38
2023-05-18T09:57:14.411Z,102201.81
2023-05-18T09:59:43.947Z,102208.41
2023-05-18T10:02:18.556Z,102205.53
2023-05-18T10:04:48.171Z,102200.97
2023-05-18T10:07:19.661Z,102198.50
2023-05-18T10:09:49.713Z,102201.28
2023-05-18T10:12:22.479Z,102203.16
2023-05-18T10:14:51.973Z,102195.34
2023-05-18T10:17:26.560Z,102195.19
2023-05-18T10:19:58.560Z,102191.31
2023-05-18T10:22:30.510Z,102192.84
2023-05-18T10:25:02.051Z,102193.41
2023-05-18T10:27:33.441Z,102188.38
2023-05-18T10:30:03.952Z,102186.06
2023-05-18T10:32:39.689Z,102191.16
2023-05-18T10:35:11.292Z,102186.28
2023-05-18T10:37:44.060Z,102181.53
2023-05-18T10:40:15.171Z,102187.38
2023-05-18T10:42:46.010Z,102170.72
2023-05-18T10:45:15.787Z,102177.16
2023-05-18T10:47:48.123Z,102179.06
2023-05-18T10:50:17.983Z,102180.38
2023-05-18T10:52:48.958Z,102185.13
2023-05-18T10:55:18.552Z,102174.28
2023-05-18T10:57:56.202Z,102175.63
2023-05-18T11:00:25.889Z,102174.31
2023-05-18T11:02:58.433Z,102169.66
2023-05-18T11:05:28.793Z,102157.75
2023-05-18T11:08:06.121Z,102154.47
2023-05-18T11:10:37.813Z,102154.16
2023-05-18T11:13:07.663Z,102163.31
2023-05-18T11:16:10.080Z,102157.91
2023-05-18T11:18:46.435Z,102152.34
2023-05-18T11:21:52.014Z,102151.75
2023-05-18T11:24:26.335Z,102155.50
2023-05-18T11:26:57.401Z,102146.19
2023-05-18T11:29:33.769Z,102150.13
2023-05-18T11:32:04.916Z,102150.78
2023-05-18T11:34:45.329Z,102142.50
2023-05-18T11:37:16.579Z,102138.03
2023-05-18T11:40:01.950Z,102132.41
2023-05-18T11:42:37.374Z,102135.63
2023-05-18T11:45:10.641Z,102140.25
2023-05-18T11:47:41.526Z,102135.00
2023-05-18T11:50:14.928Z,102140.09
2023-05-18T11:52:51.780Z,102135.50
2023-05-18T11:55:23.066Z,102136.50
2023-05-18T11:57:55.044Z,102130.72
2023-05-18T12:00:26.957Z,102137.38
2023-05-18T12:02:59.554Z,102131.94
2023-05-18T12:05:34.450Z,102128.47
2023-05-18T12:08:04.078Z,102128.00
2023-05-18T12:10:34.646Z,102134.47
2023-05-18T12:13:05.305Z,102131.91
2023-05-18T12:15:35.214Z,102123.91
2023-05-18T12:18:05.013Z,102124.59
2023-05-18T12:20:37.246Z,102121.53
2023-05-18T12:23:06.858Z,102117.22
2023-05-18T12:25:36.646Z,102120.94
2023-05-18T12:28:08.119Z,102118.25
2023-05-18T12:30:38.777Z,102122.16
2023-05-18T12:33:08.612Z,102122.47
2023-05-18T12:35:41.061Z,102113.25
2023-05-18T12:38:11.046Z,102112.59
2023-05-18T12:40:46.665Z,102114.28
2023-05-18T12:43:16.615Z,102114.59
2023-05-18T12:45:47.319Z,102106.13
2023-05-18T12:48:17.133Z,102103.91
2023-05-18T12:50:53.392Z,102108.66
2023-05-18T12:53:24.224Z,102102.56
2023-05-18T12:56:01.851Z,102098.63
2023-05-18T12:58:33.062Z,102099.78
2023-05-18T13:01:10.324Z,102099.25
2023-05-18T13:03:43.464Z,102094.53
2023-05-18T13:06:16.138Z,102094.47
2023-05-18T13:08:45.832Z,102092.59
2023-05-18T13:11:17.932Z,102091.59
2023-05-18T13:14:01.047Z,102089.38
2023-05-18T13:16:31.432Z,102095.97
2023-05-18T13:19:02.802Z,102094.03
2023-05-18T13:21:35.792Z,102092.34
2023-05-18T13:24:05.404Z,102088.38
2023-05-18T13:26:34.913Z,102077.91
2023-05-18T13:29:05.175Z,102081.34
2023-05-18T13:31:34.820Z,102081.19
2023-05-18T13:34:04.764Z,102078.91
2023-05-18T13:36:37.263Z,102083.84
2023-05-18T13:39:07.755Z,102079.00
2023-05-18T13:41:38.177Z,102081.38
2023-05-18T13:44:07.996Z,102073.19
2023-05-18T13:46:38.219Z,102071.28
2023-05-18T13:49:07.913Z,102060.06
2023-05-18T13:51:40.000Z,102067.53
2023-05-18T13:54:09.529Z,102061.94
2023-05-18T13:56:39.027Z,102059.00
2023-05-18T13:59:08.571Z,102053.31
2023-05-18T14:01:38.112Z,102061.38
2023-05-18T14:04:08.212Z,102055.38
2023-05-18T14:06:40.984Z,102051.16
2023-05-18T14:09:10.664Z,102062.72
2023-05-18T14:11:40.247Z,102055.38
2023-05-18T14:14:09.815Z,102050.56
2023-05-18T14:16:39.487Z,102042.25
2023-05-18T14:19:09.072Z,102044.69
2023-05-18T14:21:41.299Z,102047.41
2023-05-18T14:24:11.496Z,102035.69
2023-05-18T14:26:40.975Z,102043.66
2023-05-18T14:29:10.678Z,102038.53
2023-05-18T14:31:40.330Z,102032.72
2023-05-18T14:34:09.921Z,102027.19
2023-05-18T14:36:42.100Z,102027.91
2023-05-18T14:39:11.833Z,102030.09
2023-05-18T14:41:41.322Z,102029.34
2023-05-18T14:44:11.421Z,102030.72
2023-05-18T14:46:41.225Z,102024.06
2023-05-18T14:49:10.820Z,102028.97
2023-05-18T14:51:42.944Z,102030.09
2023-05-18T14:54:14.129Z,102035.19
2023-05-18T14:56:43.890Z,102026.50
2023-05-18T14:59:13.426Z,102022.84
2023-05-18T15:01:43.014Z,102019.56
2023-05-18T15:04:14.898Z,102015.53
2023-05-18T15:06:47.225Z,102017.97
2023-05-18T15:09:16.775Z,102022.22
2023-05-18T15:11:46.695Z,102012.53
2023-05-18T15:14:16.278Z,102023.22
2023-05-18T15:16:45.865Z,102010.28
2023-05-18T15:19:15.455Z,102015.72
2023-05-18T15:21:48.785Z,102015.00
2023-05-18T15:24:18.284Z,102021.44
2023-05-18T15:26:47.960Z,102014.44
2023-05-18T15:29:17.462Z,102010.41
2023-05-18T15:31:47.172Z,102001.19
2023-05-18T15:34:16.797Z,102003.91
2023-05-18T15:36:48.987Z,102002.91
2023-05-18T15:39:18.479Z,102004.72
2023-05-18T15:41:48.110Z,102009.59
2023-05-18T15:44:17.643Z,102013.06
2023-05-18T15:46:47.159Z,102004.13
2023-05-18T15:49:16.703Z,102007.88
2023-05-18T15:51:48.866Z,102004.25
2023-05-18T15:54:18.446Z,101998.50
2023-05-18T15:56:48.037Z,101993.41
2023-05-18T15:59:17.697Z,101997.75
2023-05-18T16:01:47.214Z,102000.56
2023-05-18T16:04:16.715Z,101998.22
2023-05-18T16:06:49.113Z,101992.09
2023-05-18T16:09:18.681Z,101993.16
2023-05-18T16:11:48.190Z,101992.28
2023-05-18T16:14:17.753Z,101994.00
2023-05-18T16:16:47.349Z,101995.03
2023-05-18T16:19:18.211Z,101991.34
2023-05-18T16:21:50.365Z,101992.19
2023-05-18T16:24:19.934Z,101994.56
2023-05-18T16:26:49.471Z,101994.00
2023-05-18T16:29:19.052Z,101986.56
2023-05-18T16:31:48.583Z,101992.84
2023-05-18T16:34:18.124Z,101991.56
2023-05-18T16:36:50.202Z,101993.53
2023-05-18T16:39:20.938Z,102001.41
2023-05-18T16:41:50.487Z,101998.78
2023-05-18T16:44:20.011Z,101997.44
2023-05-18T16:46:49.596Z,102004.97
2023-05-18T16:49:20.659Z,101998.09
2023-05-18T16:51:53.023Z,101995.19
2023-05-18T16:54:22.529Z,101987.38
2023-05-18T16:56:52.110Z,101988.13
2023-05-18T16:59:22.910Z,101991.88
2023-05-18T17:01:52.443Z,101985.31
2023-05-18T17:04:22.043Z,101990.63
2023-05-18T17:06:54.611Z,101987.56
2023-05-18T17:09:24.213Z,101984.66
2023-05-18T17:11:53.784Z,101985.91
2023-05-18T17:14:23.256Z,101999.19
2023-05-18T17:16:53.000Z,101990.28
2023-05-18T17:19:22.555Z,101996.22
2023-05-18T17:21:54.944Z,101995.38
2023-05-18T17:24:24.414Z,101986.22
2023-05-18T17:26:53.988Z,101986.03
2023-05-18T17:29:23.476Z,101987.41
2023-05-18T17:31:53.193Z,101991.31
2023-05-18T17:34:22.839Z,101983.66
2023-05-18T17:36:55.476Z,101983.00
2023-05-18T17:39:24.886Z,101973.22
2023-05-18T17:41:54.492Z,101980.94
2023-05-18T17:44:24.056Z,101984.69
2023-05-18T17:46:53.622Z,101985.75
2023-05-18T17:49:23.151Z,101975.47
2023-05-18T17:51:55.270Z,101982.63
2023-05-18T17:54:26.089Z,101981.31
2023-05-18T17:56:56.739Z,101985.06
2023-05-18T17:59:26.328Z,101986.47
2023-05-18T18:01:55.834Z,101991.94
2023-05-18T18:04:25.697Z,101990.50
2023-05-18T18:06:58.739Z,101982.69
2023-05-18T18:09:28.316Z,101979.53
2023-05-18T18:12:00.687Z,101991.72
2023-05-18T18:14:30.200Z,101985.06
2023-05-18T18:17:00.146Z,101981.56
2023-05-18T18:19:29.920Z,101996.44
2023-05-18T18:22:02.131Z,101997.44
2023-05-18T18:24:31.610Z,101990.31
2023-05-18T18:27:01.339Z,101992.34
2023-05-18T18:29:31.610Z,102004.13
2023-05-18T18:32:01.161Z,101999.72
2023-05-18T18:34:31.688Z,102001.97
2023-05-18T18:37:04.140Z,102001.28
2023-05-18T18:39:33.632Z,102003.34
2023-05-18T18:42:03.233Z,102003.50
2023-05-18T18:44:32.753Z,102010.03
2023-05-18T18:47:02.307Z,102012.25
2023-05-18T18:49:31.797Z,102011.59
2023-05-18T18:52:03.877Z,102015.53
2023-05-18T18:54:33.428Z,102014.38
2023-05-18T18:57:03.138Z,102006.56
2023-05-18T18:59:32.626Z,102009.66
2023-05-18T19:02:02.191Z,102024.97
2023-05-18T19:04:31.728Z,102014.94
2023-05-18T19:07:04.857Z,102028.06
2023-05-18T19:09:36.357Z,102018.38
2023-05-18T19:12:06.093Z,102024.19
2023-05-18T19:14:35.574Z,102022.50
2023-05-18T19:17:05.084Z,102030.19
2023-05-18T19:19:38.065Z,102025.94
2023-05-18T19:22:10.620Z,102031.56
2023-05-18T19:24:40.197Z,102030.75
2023-05-18T19:27:09.756Z,102034.91
2023-05-18T19:29:39.278Z,102030.75
2023-05-18T19:32:09.536Z,102032.69
2023-05-18T19:34:39.104Z,102035.63
2023-05-18T19:37:11.219Z,102047.03
2023-05-18T19:39:40.774Z,102045.16
2023-05-18T19:42:10.462Z,102042.59
2023-05-18T19:44:39.961Z,102046.38
2023-05-18T19:47:09.971Z,102046.03
2023-05-18T19:49:39.719Z,102051.66
2023-05-18T19:52:11.952Z,102047.59
2023-05-18T19:54:41.582Z,102047.28
2023-05-18T19:57:11.353Z,102048.63
2023-05-18T19:59:40.892Z,102052.03
2023-05-18T20:02:10.395Z,102050.38
2023-05-18T20:04:39.981Z,102055.63
2023-05-18T20:07:12.971Z,102042.69
2023-05-18T20:09:42.600Z,102045.25
2023-05-18T20:12:12.434Z,102043.03
2023-05-18T20:14:43.538Z,102047.47
2023-05-18T20:17:14.046Z,102052.91
2023-05-18T20:19:50.841Z,102053.78
2023-05-18T20:22:23.711Z,102057.19
2023-05-18T20:24:53.817Z,102056.84
2023-05-18T20:27:23.561Z,102058.72
2023-05-18T20:29:53.704Z,102058.56
2023-05-18T20:32:23.745Z,102066.41
2023-05-18T20:34:53.389Z,102063.69
2023-05-18T20:37:26.337Z,102070.50
2023-05-18T20:39:57.549Z,102069.84
2023-05-18T20:42:38.796Z,102070.53
2023-05-18T20:45:09.267Z,102075.63
2023-05-18T20:47:39.035Z,102071.53
2023-05-18T20:50:10.320Z,102078.34
2023-05-18T20:52:42.489Z,102078.53
2023-05-18T20:55:13.931Z,102075.81
2023-05-18T20:57:45.315Z,102077.19
2023-05-18T21:00:16.355Z,102086.84
2023-05-18T21:02:46.997Z,102086.69
2023-05-18T21:05:17.381Z,102079.94
2023-05-18T21:07:50.515Z,102081.44
2023-05-18T21:10:20.195Z,102077.34
2023-05-18T21:12:49.733Z,102079.22
2023-05-18T21:15:19.340Z,102083.47
2023-05-18T21:17:49.382Z,102081.31
2023-05-18T21:20:19.251Z,102082.47
2023-05-18T21:22:52.172Z,102082.81
2023-05-18T21:25:21.818Z,102088.25
2023-05-18T21:27:51.608Z,102078.59
2023-05-18T21:30:21.630Z,102087.41
2023-05-18T21:32:53.004Z,102081.47
2023-05-18T21:35:22.844Z,102087.25
2023-05-18T21:37:54.972Z,102079.97
2023-05-18T21:40:24.546Z,102081.97
2023-05-18T21:42:54.289Z,102071.66
2023-05-18T21:45:25.327Z,102075.19
2023-05-18T21:47:54.895Z,102075.72
2023-05-18T21:50:24.741Z,102074.00
2023-05-18T21:52:58.402Z,102069.41
2023-05-18T21:55:27.980Z,102075.19
2023-05-18T21:57:57.535Z,102077.41
2023-05-18T22:00:27.770Z,102072.13
2023-05-18T22:02:57.378Z,102080.97
2023-05-18T22:05:27.030Z,102071.28
2023-05-18T22:07:59.694Z,102072.81
2023-05-18T22:10:31.191Z,102073.16
2023-05-18T22:13:01.202Z,102073.66
2023-05-18T22:15:32.152Z,102076.72
2023-05-18T22:18:02.087Z,102069.41
2023-05-18T22:20:32.527Z,102076.53
2023-05-18T22:23:04.898Z,102071.44
2023-05-18T22:25:34.533Z,102073.09
2023-05-18T22:28:04.445Z,102077.66
2023-05-18T22:30:34.090Z,102073.25
2023-05-18T22:33:03.706Z,102068.84
2023-05-18T22:35:33.696Z,102062.72
2023-05-18T22:38:05.942Z,102073.56
2023-05-18T22:40:35.526Z,102075.63
2023-05-18T22:43:05.062Z,102073.91
2023-05-18T22:45:35.034Z,102068.66
2023-05-18T22:48:04.977Z,102070.50
2023-05-18T22:50:34.969Z,102061.69
2023-05-18T22:53:10.271Z,102063.38
2023-05-18T22:55:39.779Z,102065.88
2023-05-18T22:58:09.329Z,102060.66
2023-05-18T23:00:38.832Z,102060.13
2023-05-18T23:03:08.415Z,102059.81
2023-05-18T23:05:41.313Z,102061.81
2023-05-18T23:08:14.218Z,102064.00
2023-05-18T23:10:44.751Z,102060.13
2023-05-18T23:13:16.412Z,102066.56
2023-05-18T23:15:47.920Z,102065.03
2023-05-18T23:18:18.308Z,102071.63
2023-05-18T23:20:51.056Z,102066.50
2023-05-18T23:23:23.189Z,102072.44
2023-05-18T23:25:52.750Z,102064.16
2023-05-18T23:28:22.263Z,102068.22
2023-05-18T23:30:51.830Z,102068.88
2023-05-18T23:33:22.161Z,102064.97
2023-05-18T23:35:53.388Z,102064.16
2023-05-18T23:38:35.083Z,102068.31
2023-05-18T23:41:06.217Z,102063.31
2023-05-18T23:43:36.680Z,102063.75
2023-05-18T23:46:08.071Z,102066.28
2023-05-18T23:48:38.501Z,102062.88
2023-05-18T23:51:12.191Z,102064.88
2023-05-18T23:53:44.467Z,102070.63
2023-05-18T23:56:15.232Z,102062.16
2023-05-18T23:58:46.711Z,102068.97
